Date,TemperatureHighF,TemperatureAvgF,TemperatureLowF,DewpointHighF,DewpointAvgF,DewpointLowF,HumidityHigh,HumidityAvg,HumidityLow,PressureMaxIn,PressureMinIn,WindSpeedMaxMPH,WindSpeedAvgMPH,GustSpeedMaxMPH,PrecipitationSumIn
2014-1-1,49,35,19,38,29,18,97,81,51,30.31,29.97,10,1,12,0.02
2014-1-2,40,27,17,39,23,12,97,83,70,30.48,29.92,15,5,20,0.01
2014-1-3,28,19,9,17,13,7,93,80,58,30.59,30.25,7,1,12,0.02
2014-1-4,44,35,24,35,20,15,73,56,41,30.25,29.99,12,4,27,0.01
2014-1-5,46,34,11,44,30,3,96,85,69,30.26,29.62,11,5,21,0.46
2014-1-6,11,6,3,3,-1,-7,78,71,61,30.60,30.28,13,5,19,0.00
2014-1-7,22,14,2,11,4,-4,84,68,58,30.61,30.39,12,2,17,0.00
2014-1-8,37,29,21,28,18,11,88,65,49,30.51,30.40,5,2,10,0.02
2014-1-9,36,33,30,33,30,27,95,89,71,30.45,30.23,5,0,10,0.11
2014-1-10,50,44,34,49,43,33,98,93,89,30.22,29.64,8,1,12,0.64
2014-1-11,51,44,30,50,40,29,98,88,76,29.96,29.60,13,4,18,0.06
2014-1-12,55,41,24,40,32,23,98,73,48,30.10,29.87,8,2,16,0.00
2014-1-13,54,48,34,50,43,33,97,84,51,29.89,29.74,16,4,20,0.06
2014-1-14,56,37,24,39,32,23,98,85,49,30.09,29.84,13,2,24,0.03
2014-1-15,31,25,17,26,20,15,95,82,64,30.21,30.09,7,1,9,0.00
2014-1-16,46,33,18,34,25,16,94,73,52,30.11,29.79,15,3,20,0.00
2014-1-17,37,25,14,31,17,11,96,70,54,30.18,29.84,12,4,21,0.00
2014-1-18,44,30,13,34,21,11,94,73,44,30.16,29.77,12,2,21,0.00
2014-1-19,44,38,30,32,28,24,83,68,51,30.16,29.91,14,4,15,0.00
2014-1-20,57,43,28,34,31,24,86,63,40,29.96,29.86,6,1,9,0.00
2014-1-21,37,23,12,31,16,8,96,75,57,30.31,29.89,16,4,29,0.00
2014-1-22,32,21,14,20,14,9,92,75,52,30.28,30.09,11,2,18,0.00
2014-1-23,21,14,3,17,3,-2,94,66,43,30.79,30.25,13,3,16,0.00
2014-1-24,27,16,0,7,3,-2,90,61,38,30.79,30.03,17,4,20,0.00
2014-1-25,49,35,19,28,18,7,83,52,36,30.02,29.83,15,4,24,0.01
2014-1-26,62,42,17,38,28,14,89,59,40,29.98,29.65,24,4,25,0.00
2014-1-27,45,21,14,35,4,-5,73,47,34,30.49,29.79,12,4,23,0.00
2014-1-28,19,11,2,1,-3,-8,87,55,32,30.55,30.41,9,2,14,0.00
2014-1-29,30,14,0,9,3,-3,92,66,35,30.49,30.30,12,2,15,0.00
2014-1-30,40,27,17,15,9,6,73,49,26,30.30,30.01,19,3,23,0.00
2014-1-31,43,36,27,37,26,12,97,68,39,30.13,29.98,7,1,12,0.05
2014-2-1,64,51,38,53,44,35,98,78,57,29.98,29.85,14,4,21,0.22
2014-2-2,38,31,25,37,30,24,95,93,87,30.21,29.95,11,3,15,0.58
2014-2-3,31,24,17,24,20,15,95,85,65,30.37,30.18,6,2,10,0.17
2014-2-4,32,29,24,31,28,22,96,94,91,30.30,29.83,8,1,15,0.01
2014-2-5,32,26,19,31,24,16,97,91,87,30.54,29.86,0,0,0,0.00
2014-2-6,19,17,10,16,14,7,90,88,85,30.60,30.49,0,0,0,0.00
2014-2-7,20,14,5,18,11,3,93,87,76,30.57,30.37,0,0,0,0.00
2014-2-8,32,27,20,30,25,18,96,92,87,30.37,30.18,4,0,6,0.06
2014-2-9,33,30,24,31,28,21,97,92,86,30.31,30.13,9,2,15,0.12
2014-2-10,25,20,11,21,14,5,90,77,63,30.46,30.28,8,3,15,0.00
2014-2-11,25,15,6,13,8,2,84,72,58,30.52,30.34,9,2,13,0.00
2014-2-12,38,24,12,25,17,10,90,76,53,30.33,30.01,8,1,11,0.10
2014-2-13,41,32,13,30,22,11,95,70,45,30.01,29.81,9,3,14,0.29
2014-2-14,40,31,22,37,28,18,97,90,79,30.05,29.64,12,3,21,0.33
2014-2-15,32,26,14,28,20,12,91,78,65,30.25,30.04,8,1,12,0.00
2014-2-16,43,31,21,34,27,19,97,83,69,30.25,30.03,10,2,14,0.00
2014-2-17,53,37,27,50,34,26,95,88,76,30.20,29.80,18,3,25,0.04
2014-2-18,61,45,22,56,35,21,98,72,38,30.15,29.83,12,2,15,0.04
2014-2-19,60,53,41,57,42,35,97,69,39,30.05,29.83,12,2,18,0.00
2014-2-20,69,59,40,62,53,33,90,80,65,29.86,29.54,24,7,30,0.27
2014-2-21,53,45,38,34,30,26,81,57,37,30.06,29.87,13,5,20,0.00
2014-2-22,65,47,30,37,31,26,88,58,24,30.10,29.92,13,2,15,0.00
2014-2-23,48,38,30,37,31,20,94,78,65,30.30,29.96,10,3,21,0.04
2014-2-24,43,33,21,21,18,14,89,55,31,30.39,30.21,9,2,15,0.00
2014-2-25,43,34,25,23,21,19,84,60,42,30.25,30.16,11,3,14,0.00
2014-2-26,32,23,14,20,11,6,87,61,39,30.30,30.05,11,3,20,0.00
2014-2-27,40,28,18,19,12,2,81,55,25,30.14,30.02,10,3,14,0.00
2014-2-28,51,36,20,32,16,9,66,48,25,30.16,29.99,10,2,13,0.00
2014-3-1,56,48,40,42,38,32,86,70,54,30.17,30.07,5,0,7,0.00
2014-3-2,49,30,17,39,27,15,95,89,69,30.24,30.06,8,2,15,0.84
2014-3-3,24,14,2,20,11,-1,91,87,82,30.43,30.16,0,0,0,0.01
2014-3-4,34,20,2,28,16,-1,96,87,72,30.39,30.19,4,0,6,0.25
2014-3-5,35,32,28,33,31,27,96,94,89,30.26,30.19,7,1,12,0.00
2014-3-6,45,34,26,29,26,23,96,76,53,30.22,30.07,9,2,13,0.00
2014-3-7,52,36,23,35,29,22,97,78,50,30.09,30.00,5,1,9,0.01
2014-3-8,53,40,27,45,36,25,97,86,74,30.27,30.03,8,2,13,0.02
2014-3-9,50,39,28,38,32,26,94,78,58,30.35,30.13,6,2,10,0.00
2014-3-10,65,50,32,48,42,31,96,77,50,30.13,29.82,11,4,20,0.00
2014-3-11,74,60,38,58,51,37,98,74,52,29.82,29.51,15,3,18,0.00
2014-3-12,65,46,35,59,37,25,87,72,53,30.15,29.43,21,7,27,0.00
2014-3-13,56,40,22,34,29,21,96,67,42,30.27,30.08,10,2,13,0.00
2014-3-14,64,53,44,40,36,32,66,53,38,30.08,29.93,18,6,28,0.00
2014-3-15,70,50,28,46,36,27,97,66,25,30.09,29.90,7,1,11,0.00
2014-3-16,52,41,33,48,38,27,95,90,78,29.93,29.77,20,5,27,1.04
2014-3-17,45,34,29,36,28,23,95,78,67,29.95,29.82,9,2,18,0.00
2014-3-18,58,42,26,46,37,25,98,82,61,29.94,29.72,11,2,19,0.00
2014-3-19,60,52,36,48,42,33,90,72,52,30.15,29.79,19,6,25,0.00
2014-3-20,63,44,26,41,32,25,97,69,32,30.20,30.04,9,2,18,0.00
2014-3-21,69,53,34,42,35,30,86,55,27,30.06,29.88,13,3,21,0.00
2014-3-22,58,51,44,43,36,33,71,58,41,30.21,29.91,11,3,18,0.00
2014-3-23,49,41,27,33,26,20,84,58,38,30.36,30.21,12,4,19,0.00
2014-3-24,50,36,22,25,20,17,89,57,28,30.36,30.12,9,2,12,0.00
2014-3-25,45,36,23,32,24,16,92,67,37,30.32,30.11,16,4,20,0.01
2014-3-26,50,34,18,29,20,16,94,61,29,30.43,30.17,11,1,14,0.00
2014-3-27,65,52,41,51,36,23,90,59,39,30.15,29.78,19,6,26,0.19
2014-3-28,69,59,50,57,53,46,95,81,60,30.00,29.78,12,4,19,0.79
2014-3-29,50,44,38,48,41,34,96,87,78,30.27,29.92,13,4,19,0.42
2014-3-30,62,44,28,42,35,28,97,75,38,30.32,30.14,8,1,9,0.00
2014-3-31,73,54,31,48,38,30,98,61,27,30.14,29.89,12,3,16,0.00
2014-4-1,77,64,48,56,48,43,85,59,37,30.05,29.96,11,3,12,0.00
2014-4-2,78,64,51,65,57,46,97,77,58,30.01,29.87,13,2,18,1.24
2014-4-3,74,69,63,68,65,62,98,87,74,29.90,29.64,14,4,22,0.01
2014-4-4,73,55,43,64,48,35,97,77,57,30.12,29.60,19,6,31,1.11
2014-4-5,56,47,39,38,34,31,86,62,47,30.23,30.11,11,2,16,0.00
2014-4-6,62,49,32,46,38,31,97,69,38,30.13,29.82,12,2,21,0.00
2014-4-7,53,49,44,51,47,41,97,93,77,29.84,29.49,11,3,18,0.64
2014-4-8,58,47,38,52,44,38,97,89,74,29.97,29.78,7,2,12,0.09
2014-4-9,66,51,36,47,39,34,97,70,38,30.15,29.98,12,3,16,0.00
2014-4-10,78,63,42,51,44,38,87,54,35,30.09,29.89,19,5,26,0.00
2014-4-11,75,63,50,60,53,47,96,72,54,30.08,29.95,13,4,19,0.11
2014-4-12,79,65,47,61,55,47,98,72,48,30.08,29.86,14,4,20,0.00
2014-4-13,76,70,59,62,60,57,94,70,58,29.90,29.67,16,6,38,0.59
2014-4-14,61,53,39,59,51,35,97,93,87,30.01,29.60,12,4,20,0.83
2014-4-15,50,40,30,35,28,22,91,66,38,30.27,30.02,13,3,19,0.00
2014-4-16,59,42,27,39,30,25,97,67,32,30.35,30.14,9,2,14,0.00
2014-4-17,69,52,33,48,40,32,98,69,35,30.33,30.18,10,2,18,0.00
2014-4-18,74,57,42,51,45,41,98,69,31,30.28,30.15,7,1,12,0.00
2014-4-19,77,60,41,50,44,40,98,64,27,30.24,30.14,8,2,15,0.00
2014-4-20,80,61,41,54,47,40,98,65,29,30.22,30.08,7,1,12,0.00
2014-4-21,77,63,49,60,55,48,97,76,47,30.08,29.90,11,2,16,0.00
2014-4-22,76,65,48,61,52,38,97,67,31,29.97,29.85,9,3,16,0.06
2014-4-23,70,54,38,44,40,35,97,65,30,30.10,29.96,10,2,12,0.00
2014-4-24,79,62,41,60,48,39,96,64,33,29.97,29.62,10,2,16,0.26
2014-4-25,75,62,48,60,50,39,96,69,28,29.95,29.65,9,2,14,0.04
2014-4-26,81,62,42,59,49,41,98,68,32,29.99,29.84,7,1,13,0.00
2014-4-27,76,65,52,66,60,51,97,85,70,29.84,29.60,10,2,21,0.08
2014-4-28,70,63,60,66,62,58,97,94,78,29.70,29.48,15,2,19,2.80
2014-4-29,66,58,47,56,51,47,98,79,56,29.78,29.56,10,2,23,0.16
2014-4-30,58,51,42,49,46,41,98,83,68,29.99,29.77,11,2,14,0.00
2014-5-1,62,53,42,47,43,40,96,72,47,29.99,29.94,16,4,24,0.00
2014-5-2,64,54,40,50,45,39,98,75,50,30.00,29.90,12,2,14,0.00
2014-5-3,78,60,43,53,47,42,97,68,31,29.97,29.90,13,2,18,0.00
2014-5-4,88,69,48,57,52,47,97,60,29,30.00,29.84,13,2,20,0.00
2014-5-5,86,74,63,58,53,49,71,49,31,29.88,29.75,12,3,21,0.00
2014-5-6,85,73,60,64,56,51,81,58,33,29.86,29.78,8,2,15,0.00
2014-5-7,84,73,62,63,59,55,81,64,43,29.94,29.84,13,3,18,0.00
2014-5-8,84,75,66,67,64,61,84,70,56,30.04,29.92,11,2,15,0.00
2014-5-9,75,71,64,67,64,60,94,81,63,29.93,29.84,9,2,18,0.10
2014-5-10,82,71,64,68,65,63,95,82,61,29.98,29.89,8,1,13,0.00
2014-5-11,86,74,64,74,68,62,97,82,59,30.00,29.90,11,1,14,0.11
2014-5-12,85,75,69,73,70,66,96,84,67,30.04,29.89,8,1,13,0.02
2014-5-13,82,72,60,71,67,58,93,84,66,30.11,29.93,9,2,14,0.06
2014-5-14,60,54,49,58,53,48,98,95,93,30.10,29.88,11,1,16,0.71
2014-5-15,65,53,47,49,47,45,96,82,52,30.12,29.99,16,2,25,0.08
2014-5-16,63,52,44,48,44,39,98,76,45,30.12,30.04,10,2,16,0.04
2014-5-17,64,54,47,51,45,41,96,75,47,30.22,30.12,5,0,10,0.00
2014-5-18,71,56,43,49,44,41,97,69,37,30.27,30.17,7,1,11,0.00
2014-5-19,79,62,43,65,56,42,98,81,59,30.22,30.01,8,1,13,0.00
2014-5-20,85,74,60,65,62,58,94,68,43,30.07,29.93,13,3,26,0.00
2014-5-21,86,74,60,69,64,59,96,74,51,30.03,29.95,14,3,21,0.00
2014-5-22,90,78,66,75,69,63,92,76,54,30.07,29.97,8,2,12,0.00
2014-5-23,84,72,61,66,62,59,94,74,48,30.09,30.02,5,1,9,0.00
2014-5-24,81,70,62,64,61,58,94,74,51,30.13,30.03,8,1,11,0.00
2014-5-25,86,72,64,74,66,61,96,84,62,30.08,29.99,6,1,9,0.05
2014-5-26,89,74,61,70,66,61,98,78,47,30.10,29.99,7,1,11,0.01
2014-5-27,86,72,64,71,66,63,98,85,54,30.03,29.93,7,1,15,0.32
2014-5-28,80,72,64,72,68,63,98,88,69,29.99,29.90,2,0,7,0.00
2014-5-29,82,72,65,71,68,65,98,87,66,30.02,29.91,5,0,8,0.00
2014-5-30,89,75,66,71,68,65,98,81,49,30.05,29.96,3,0,9,0.00
2014-5-31,90,76,64,72,68,63,98,78,49,30.08,29.97,7,1,9,0.00
2014-6-1,86,74,66,74,70,65,98,87,61,30.07,29.97,6,0,12,0.47
2014-6-2,82,74,71,74,71,69,97,90,74,30.07,29.97,11,2,16,0.63
2014-6-3,90,77,69,75,72,68,98,85,58,30.05,29.88,5,1,8,0.00
2014-6-4,87,78,69,75,72,67,97,83,66,29.94,29.69,11,2,19,2.23
2014-6-5,78,72,69,72,70,68,98,92,80,29.90,29.72,6,1,9,0.38
2014-6-6,83,74,66,74,70,65,98,87,67,29.94,29.86,5,0,9,0.00
2014-6-7,82,72,67,73,68,65,97,90,68,29.97,29.78,6,0,9,0.79
2014-6-8,78,70,66,68,65,63,96,84,63,29.99,29.80,4,0,9,0.00
2014-6-9,76,69,64,70,67,63,98,92,79,29.95,29.76,7,0,7,0.57
2014-6-10,76,69,64,70,67,63,98,93,78,29.78,29.69,6,1,12,0.10
2014-6-11,84,72,64,69,67,63,98,85,58,29.80,29.68,9,2,13,0.01
2014-6-12,84,73,62,71,67,61,99,83,56,29.89,29.79,6,0,7,0.00
2014-6-13,82,70,56,68,60,50,95,74,37,30.02,29.86,10,1,11,0.01
2014-6-14,82,66,50,63,57,49,98,76,43,30.11,29.96,6,0,8,0.00
2014-6-15,87,73,56,74,66,55,98,81,56,30.05,29.92,7,1,13,0.00
2014-6-16,91,79,67,74,70,66,98,77,49,30.11,30.00,6,1,11,0.00
2014-6-17,91,81,72,75,72,69,92,76,55,30.08,29.98,12,1,12,0.00
2014-6-18,91,81,71,75,72,69,96,77,52,30.06,29.96,6,1,10,0.00
2014-6-19,92,81,71,75,73,69,95,78,55,30.11,29.98,8,1,11,0.00
2014-6-20,87,77,69,80,73,68,97,86,70,30.04,29.92,7,1,12,0.33
2014-6-21,89,77,68,79,72,67,98,85,59,29.96,29.86,2,0,5,0.00
2014-6-22,91,78,66,79,72,65,98,85,55,29.93,29.81,4,0,6,0.00
2014-6-23,90,78,68,76,71,68,98,82,54,29.90,29.84,9,1,13,0.00
2014-6-24,80,73,69,74,67,-100,96,87,79,29.94,29.85,7,-20,10,0.01
2014-6-25,89,76,67,75,70,66,98,82,50,30.03,29.94,4,1,6,0.00
2014-6-26,87,74,67,75,70,66,98,87,63,30.02,29.95,3,0,10,0.00
2014-6-27,80,73,68,75,71,68,98,92,78,30.04,29.97,3,0,11,0.01
2014-6-28,85,76,67,75,71,66,98,85,68,30.09,30.00,8,1,13,0.00
2014-6-29,77,72,69,71,69,67,95,90,81,30.12,29.98,3,1,8,0.00
2014-6-30,91,80,69,79,75,68,98,83,64,29.99,29.80,6,1,12,0.00
2014-7-1,91,79,69,79,73,68,98,84,64,29.93,29.75,9,1,22,0.62
2014-7-2,88,75,63,74,69,61,99,82,44,30.03,29.91,6,1,11,0.00
2014-7-3,74,66,58,63,60,56,97,82,63,30.20,30.03,6,1,9,0.00
2014-7-4,82,67,54,64,59,53,98,79,47,30.28,30.19,4,0,11,0.00
2014-7-5,85,68,52,69,59,51,98,78,41,30.25,30.08,4,0,6,0.00
2014-7-6,87,71,57,69,62,55,98,78,50,30.10,29.95,4,0,11,0.00
2014-7-7,90,76,61,77,70,59,97,80,61,29.96,29.83,8,1,15,0.00
2014-7-8,86,78,68,73,71,67,96,80,63,29.93,29.78,8,2,18,0.22
2014-7-9,90,76,65,72,67,62,98,77,41,30.00,29.91,7,1,9,0.00
2014-7-10,85,73,63,72,67,62,98,82,55,30.10,30.00,5,0,7,0.00
2014-7-11,91,75,61,74,67,60,98,78,48,30.16,30.07,2,0,5,0.00
2014-7-12,93,77,64,76,71,63,97,82,57,30.16,30.02,4,0,9,0.00
2014-7-13,94,82,70,78,74,69,97,78,54,30.05,29.91,6,1,12,0.00
2014-7-14,84,77,70,77,73,69,97,89,78,29.95,29.82,5,1,15,0.64
2014-7-15,80,69,58,70,60,55,97,74,45,30.00,29.89,5,1,9,0.00
2014-7-16,79,64,53,63,57,52,98,79,48,30.05,29.99,4,0,9,0.00
2014-7-17,79,66,52,66,58,51,98,79,45,30.11,30.02,6,0,9,0.00
2014-7-18,76,68,61,64,61,59,96,81,61,30.11,30.01,4,0,5,0.00
2014-7-19,78,69,60,68,64,58,97,85,68,30.01,29.97,4,1,9,0.00
2014-7-20,86,70,57,67,62,56,98,78,47,30.06,29.98,4,0,6,0.00
2014-7-21,91,72,57,71,64,56,98,79,49,30.10,30.01,2,0,7,0.00
2014-7-22,95,76,62,75,68,61,98,79,48,30.08,29.99,3,0,7,0.00
2014-7-23,82,73,66,74,70,65,98,89,77,30.08,29.90,5,0,14,0.01
2014-7-24,81,69,58,68,61,55,93,76,52,30.05,29.98,6,1,11,0.00
2014-7-25,83,68,53,67,61,52,98,79,51,30.07,29.90,4,0,8,0.00
2014-7-26,93,77,59,78,70,58,98,81,60,29.99,29.86,10,1,13,0.00
2014-7-27,93,83,73,80,75,65,94,78,64,29.90,29.81,10,2,14,0.00
2014-7-28,84,73,61,65,62,58,93,71,50,30.06,29.91,6,1,13,0.00
2014-7-29,81,66,53,61,56,52,97,73,42,30.13,30.05,4,0,10,0.00
2014-7-30,80,66,52,66,58,51,98,79,49,30.11,30.04,4,0,5,0.00
2014-7-31,84,69,57,67,62,56,98,79,50,30.10,30.03,4,0,9,0.00
2014-8-1,86,72,59,71,64,57,98,79,50,30.07,30.00,5,0,7,0.00
2014-8-2,90,74,62,68,65,61,98,75,43,30.09,30.02,5,0,10,0.00
2014-8-3,89,73,58,68,62,57,98,73,42,30.12,30.01,4,0,8,0.00
2014-8-4,65,63,60,62,60,59,94,92,88,30.07,30.05,0,0,0,0.00
2014-8-5,91,76,58,70,65,57,98,73,47,30.07,29.97,6,1,12,0.00
2014-8-6,93,77,65,75,70,63,98,81,47,30.01,29.93,5,0,11,0.00
2014-8-7,87,74,66,74,70,65,98,89,63,29.98,29.87,6,0,15,0.07
2014-8-8,86,75,67,77,72,66,99,92,75,29.94,29.85,4,0,8,0.19
2014-8-9,90,78,72,77,74,70,97,88,59,29.97,29.88,3,0,8,0.04
2014-8-10,91,76,68,76,72,67,98,86,55,30.00,29.88,4,0,10,0.00
2014-8-11,88,77,69,76,72,67,98,84,61,29.92,29.83,7,1,12,0.02
2014-8-12,86,73,59,69,63,57,97,74,41,30.01,29.87,8,1,12,0.00
2014-8-13,83,67,53,62,57,51,98,74,43,30.09,30.00,4,0,11,0.00
2014-8-14,89,69,53,65,58,51,98,73,40,30.10,29.99,4,1,10,0.03
2014-8-15,90,72,56,67,61,55,98,74,40,30.06,29.95,5,0,8,0.00
2014-8-16,84,73,64,71,67,62,96,82,61,30.01,29.89,3,0,11,0.00
2014-8-17,87,78,72,78,72,68,97,84,62,29.90,29.79,7,1,14,0.55
2014-8-18,88,76,69,73,71,68,98,85,60,29.89,29.79,5,0,10,0.00
2014-8-19,92,78,68,78,73,67,98,85,60,29.86,29.77,5,0,11,0.00
2014-8-20,97,82,74,78,75,72,97,80,52,30.01,29.82,6,1,13,0.00
2014-8-21,94,82,71,75,73,69,98,76,45,30.06,29.96,10,2,13,0.00
2014-8-22,97,83,74,78,75,73,95,79,47,30.03,29.92,5,1,8,0.00
2014-8-23,92,81,74,80,75,72,97,85,62,29.98,29.87,3,0,9,0.00
2014-8-24,94,81,70,79,74,69,98,82,59,29.97,29.88,4,0,10,0.00
2014-8-25,95,80,69,77,72,68,98,79,47,30.02,29.93,5,0,7,0.00
2014-8-26,94,79,69,78,72,68,98,82,51,30.09,29.98,5,0,10,0.02
2014-8-27,94,79,69,76,72,68,98,81,50,30.08,29.98,4,0,10,0.00
2014-8-28,92,77,68,77,72,67,98,85,54,30.02,29.93,4,0,9,0.00
2014-8-29,93,79,66,75,68,64,98,73,38,29.98,29.89,6,1,12,0.00
2014-8-30,85,75,71,75,71,68,97,88,70,30.01,29.96,8,1,17,0.34
2014-8-31,88,76,71,74,72,70,99,88,62,29.99,29.93,4,1,10,0.16
2014-9-1,89,80,73,75,73,72,96,82,59,29.99,29.87,13,2,20,0.00
2014-9-2,88,79,69,75,72,67,94,79,53,29.98,29.89,6,2,16,0.00
2014-9-3,91,76,65,74,68,64,98,80,46,30.03,29.93,3,0,8,0.00
2014-9-4,93,77,63,73,69,62,98,78,49,30.07,29.99,6,1,10,0.00
2014-9-5,92,74,67,77,70,66,98,88,58,30.11,29.96,3,0,13,0.30
2014-9-6,78,72,66,72,68,63,99,88,74,30.11,30.01,7,1,10,0.00
2014-9-7,83,70,60,64,62,57,95,76,48,30.12,30.02,6,1,11,0.00
2014-9-8,86,67,53,62,57,52,98,74,35,30.09,29.97,5,0,8,0.00
2014-9-9,89,71,54,70,63,53,98,79,50,30.05,29.89,4,0,9,0.00
2014-9-10,89,80,70,76,73,67,92,79,63,29.88,29.75,12,2,15,0.23
2014-9-11,74,67,60,73,66,59,98,95,89,30.13,29.84,4,1,10,0.74
2014-9-12,62,60,58,59,58,55,97,92,89,30.19,30.11,5,1,10,0.00
2014-9-13,68,58,48,56,51,47,94,79,52,30.32,30.19,7,1,13,0.01
2014-9-14,75,58,46,57,50,45,98,78,42,30.29,30.16,3,0,8,0.00
2014-9-15,77,63,51,63,58,50,98,84,60,30.19,30.05,5,0,9,0.00
2014-9-16,71,64,51,65,58,49,93,81,62,30.16,30.06,7,1,11,0.00
2014-9-17,71,58,44,61,54,43,98,87,66,30.09,29.93,3,0,9,0.00
2014-9-18,75,64,55,62,59,54,97,85,61,30.03,29.95,5,0,10,0.00
2014-9-19,82,65,53,68,59,52,98,82,52,30.07,29.99,5,0,9,0.00
2014-9-20,88,70,56,70,64,55,98,81,51,30.08,29.93,5,1,13,0.00
2014-9-21,84,72,57,71,61,50,97,74,31,30.09,29.91,11,1,12,0.02
2014-9-22,74,59,47,56,50,45,98,74,36,30.24,30.09,6,1,15,0.00
2014-9-23,77,57,41,53,47,40,98,74,35,30.30,30.18,6,1,13,0.00
2014-9-24,80,60,42,62,53,41,98,79,46,30.30,30.19,4,0,8,0.00
2014-9-25,85,64,48,63,55,47,98,76,39,30.27,30.13,5,0,6,0.00
2014-9-26,83,66,50,65,57,49,98,76,42,30.20,30.10,6,0,11,0.00
2014-9-27,85,69,56,67,59,53,98,75,33,30.15,30.04,0,0,0,0.00
2014-9-28,82,70,61,67,63,59,97,81,54,30.12,30.01,1,0,6,0.00
2014-9-29,88,68,55,66,58,54,98,74,34,30.03,29.91,0,0,2,0.00
2014-9-30,89,66,50,62,55,49,98,72,31,29.95,29.85,0,0,0,0.00
2014-10-1,89,69,52,64,59,51,98,75,41,29.94,29.84,3,0,12,0.00
2014-10-2,86,74,60,74,67,58,95,80,63,29.94,29.62,8,1,23,0.02
2014-10-3,74,62,43,64,56,39,97,82,44,30.07,29.66,10,2,18,0.54
2014-10-4,56,46,36,43,37,32,97,75,39,30.07,29.96,14,2,21,0.00
2014-10-5,75,56,34,56,45,33,98,71,40,29.95,29.73,14,2,19,0.00
2014-10-6,74,64,54,61,56,52,97,79,56,29.85,29.73,11,2,15,0.01
2014-10-7,79,68,58,67,63,57,97,84,65,29.94,29.80,14,2,18,0.15
2014-10-8,83,63,48,61,52,46,98,73,30,30.12,29.94,4,0,9,0.00
2014-10-9,81,67,56,70,63,54,98,88,64,30.09,29.95,5,0,8,1.07
2014-10-10,65,61,54,64,61,53,98,97,96,30.00,29.87,7,1,10,0.70
2014-10-11,55,54,52,55,53,51,98,96,91,30.12,29.98,4,0,10,0.00
2014-10-12,70,63,55,69,62,55,98,95,86,30.04,29.87,4,0,9,0.08
2014-10-13,78,68,63,70,66,62,98,93,74,29.88,29.59,16,1,25,1.31
2014-10-14,63,58,55,62,56,52,96,90,82,29.75,29.53,15,3,18,0.04
2014-10-15,56,54,53,55,52,51,97,94,88,29.89,29.75,9,2,12,0.10
2014-10-16,70,57,47,57,52,46,98,85,60,29.95,29.83,7,1,9,0.00
2014-10-17,78,62,49,58,52,48,96,74,38,29.95,29.78,11,2,15,0.00
2014-10-18,66,55,43,50,47,41,94,76,53,30.19,29.95,9,1,10,0.00
2014-10-19,62,48,36,50,44,35,98,85,60,30.27,30.07,3,0,6,0.00
2014-10-20,72,55,43,57,50,41,98,84,58,30.07,29.93,9,1,14,0.00
2014-10-21,74,54,41,53,46,40,98,78,41,30.16,30.01,5,0,10,0.00
2014-10-22,63,49,39,48,43,37,98,82,52,30.30,30.16,6,1,17,0.00
2014-10-23,62,47,33,49,42,32,98,83,56,30.25,30.11,4,0,8,0.00
2014-10-24,71,52,38,56,47,37,98,84,59,30.14,30.05,4,1,7,0.00
2014-10-25,81,60,46,66,56,44,98,85,59,30.07,29.98,7,1,9,0.00
2014-10-26,83,64,51,68,58,49,98,84,55,30.02,29.87,6,0,7,0.00
2014-10-27,82,71,58,64,59,54,98,70,39,29.92,29.82,9,2,21,0.00
2014-10-28,70,60,51,63,57,51,97,89,71,30.11,29.88,5,1,12,0.45
2014-10-29,67,51,38,52,44,37,98,81,41,30.18,30.10,6,1,11,0.00
2014-10-30,63,48,32,49,41,31,98,81,43,30.19,30.02,3,0,6,0.00
2014-10-31,51,47,38,49,38,25,97,74,44,30.28,29.99,11,2,21,0.01
2014-11-1,50,38,28,31,27,24,93,67,42,30.42,30.28,7,1,14,0.00
2014-11-2,57,38,22,35,28,21,97,73,29,30.52,30.33,4,0,9,0.00
2014-11-3,68,50,31,38,35,30,96,61,28,30.39,30.22,7,1,15,0.00
2014-11-4,63,56,46,54,47,35,97,75,49,30.22,30.11,6,1,11,0.40
2014-11-5,54,52,51,53,52,50,98,97,94,30.22,30.09,11,1,11,0.15
2014-11-6,58,48,33,50,41,31,97,79,55,30.29,30.04,14,3,22,0.00
2014-11-7,52,38,28,37,32,28,97,81,49,30.27,30.02,6,0,9,0.00
2014-11-8,57,43,30,45,37,29,98,81,62,30.12,29.92,9,1,13,0.00
2014-11-9,57,39,26,41,33,25,98,81,48,30.11,29.94,8,1,12,0.00
2014-11-10,69,53,31,49,40,30,98,67,40,29.95,29.72,10,3,19,0.00
2014-11-11,61,49,34,57,43,29,94,81,60,30.22,29.80,10,2,17,0.10
2014-11-12,37,34,28,28,27,22,87,76,69,30.39,30.22,9,1,13,0.01
2014-11-13,36,30,23,22,18,15,81,62,47,30.45,30.37,9,2,13,0.00
2014-11-14,35,25,16,21,18,15,94,76,46,30.49,30.40,7,0,11,0.00
2014-11-15,40,29,16,30,21,15,96,75,44,30.46,30.21,4,0,10,0.00
2014-11-16,38,35,32,36,33,30,96,94,85,30.24,29.96,3,0,9,0.17
2014-11-17,32,28,19,31,22,12,96,81,70,30.30,29.96,7,1,15,0.08
2014-11-18,27,20,10,17,12,7,92,73,58,30.45,30.29,12,2,19,0.00
2014-11-19,51,38,24,33,27,16,88,67,49,30.28,30.05,14,4,24,0.05
2014-11-20,43,30,18,27,23,17,95,78,50,30.35,30.20,5,1,10,0.00
2014-11-21,48,39,22,36,27,21,95,65,45,30.46,30.30,9,1,12,0.00
2014-11-22,66,56,42,44,41,36,82,60,40,30.29,29.96,9,2,15,0.00
2014-11-23,60,55,43,58,52,39,97,89,78,29.96,29.29,10,2,19,0.67
2014-11-24,62,48,31,58,41,29,92,78,57,30.02,29.31,24,7,34,0.01
2014-11-25,46,34,24,32,28,22,97,81,53,30.23,30.02,9,1,11,0.00
2014-11-26,45,33,20,37,30,18,97,87,58,30.18,29.99,10,1,15,0.09
2014-11-27,37,32,24,36,29,22,95,87,73,30.51,30.15,8,2,14,0.01
2014-11-28,48,36,22,33,28,21,96,74,49,30.46,30.06,13,2,17,0.00
2014-11-29,62,55,43,55,47,31,84,75,56,30.06,29.84,14,4,20,0.00
2014-11-30,69,65,58,59,57,51,82,76,68,30.16,29.88,11,4,22,0.00
2014-12-1,53,36,33,48,34,31,95,92,83,30.47,30.17,9,2,14,0.29
2014-12-2,38,36,33,37,34,32,97,93,88,30.38,30.23,10,2,13,0.01
2014-12-3,42,39,35,37,35,33,94,86,75,30.39,30.25,5,1,10,0.00
2014-12-4,44,41,39,44,40,37,98,96,86,30.32,30.21,6,1,8,0.04
2014-12-5,62,55,44,61,54,44,99,98,94,30.21,30.00,4,0,9,0.43
2014-12-6,59,46,41,59,43,36,98,89,82,30.53,30.01,9,3,17,0.14
2014-12-7,46,40,36,37,35,33,94,82,67,30.54,30.28,7,1,11,0.00
2014-12-8,53,41,31,43,37,30,98,87,64,30.30,30.16,10,2,17,0.00
2014-12-9,42,38,30,39,33,29,98,85,69,30.36,30.17,10,2,17,0.00
2014-12-10,40,36,28,34,31,26,92,83,68,30.38,30.26,5,1,9,0.00
2014-12-11,42,31,23,31,27,22,96,84,64,30.36,30.26,5,0,9,0.00
2014-12-12,48,31,21,40,28,19,97,89,72,30.46,30.34,3,0,7,0.00
2014-12-13,49,42,31,42,39,31,97,88,78,30.37,30.20,2,0,6,0.00
2014-12-14,55,49,45,50,46,42,95,89,83,30.21,30.05,5,0,8,0.00
2014-12-15,56,47,38,55,46,37,98,95,87,30.05,29.73,11,2,18,0.26
2014-12-16,50,43,37,46,38,32,87,83,79,30.29,29.80,14,6,19,0.00
2014-12-17,41,35,31,32,29,27,93,80,63,30.36,30.27,6,0,9,0.00
2014-12-18,36,34,32,33,32,30,96,93,83,30.33,30.23,6,0,7,0.17
2014-12-19,40,35,33,32,31,29,93,83,70,30.33,30.25,6,1,10,0.00
2014-12-20,42,33,24,33,29,22,95,85,66,30.32,30.25,3,0,6,0.01
2014-12-21,49,32,20,36,28,19,97,85,57,30.29,29.97,5,0,9,0.00
2014-12-22,54,48,34,52,46,33,97,93,87,29.97,29.62,5,1,13,0.11
2014-12-23,54,48,44,53,47,42,98,95,89,29.78,29.64,6,1,9,0.23
2014-12-24,45,42,39,43,40,37,97,93,90,29.94,29.60,11,3,14,0.16
2014-12-25,49,41,31,39,35,30,96,82,62,30.18,29.94,11,2,16,0.00
2014-12-26,58,45,31,45,39,30,97,80,63,30.25,30.13,10,1,14,0.00
2014-12-27,50,47,40,49,45,39,98,94,76,30.18,30.09,10,1,14,0.44
2014-12-28,40,36,34,38,34,30,96,91,86,30.23,30.13,6,1,10,0.01
2014-12-29,36,33,30,31,29,27,90,86,79,30.39,30.21,7,1,12,0.00
2014-12-30,38,31,25,27,24,21,90,78,59,30.66,30.39,12,2,16,0.00
2014-12-31,32,24,18,20,16,13,92,74,48,30.67,30.43,7,1,14,0.00
2015-1-1,38,32,18,31,24,16,95,75,59,30.43,30.28,9,2,12,0.01
2015-1-2,40,37,34,39,35,30,97,93,82,30.38,30.10,7,1,8,0.11